createdAt,value
2018-05-14T00:02:24.602Z,139.63
2018-05-14T00:04:53.748Z,191.60
2018-05-14T00:07:22.864Z,181.30
2018-05-14T00:09:52.045Z,188.03
2018-05-14T00:12:21.211Z,130.13
2018-05-14T00:14:50.321Z,126.70
2018-05-14T00:17:19.504Z,124.30
2018-05-14T00:19:48.653Z,130.47
2018-05-14T00:22:17.804Z,143.90
2018-05-14T00:24:46.965Z,182.93
2018-05-14T00:27:16.105Z,262.93
2018-05-14T00:29:45.268Z,243.27
2018-05-14T00:32:14.419Z,170.90
2018-05-14T00:34:44.059Z,138.90
2018-05-14T00:37:13.236Z,143.77
2018-05-14T00:39:42.405Z,145.83
2018-05-14T00:42:11.539Z,147.47
2018-05-14T00:44:40.745Z,145.67
2018-05-14T00:47:09.910Z,155.97
2018-05-14T00:49:39.024Z,151.90
2018-05-14T00:52:08.148Z,155.87
2018-05-14T00:54:37.304Z,162.33
2018-05-14T00:57:06.441Z,149.83
2018-05-14T00:59:35.556Z,168.60
2018-05-14T01:02:04.720Z,163.27
2018-05-14T01:04:33.869Z,233.17
2018-05-14T01:07:03.040Z,267.83
2018-05-14T01:09:32.220Z,218.60
2018-05-14T01:12:01.356Z,168.80
2018-05-14T01:14:30.521Z,159.27
2018-05-14T01:17:00.072Z,168.90
2018-05-14T01:19:29.216Z,176.77
2018-05-14T01:21:58.333Z,186.80
2018-05-14T01:24:27.528Z,168.20
2018-05-14T01:26:56.669Z,184.93
2018-05-14T01:29:25.811Z,178.23
2018-05-14T01:31:54.940Z,184.03
2018-05-14T01:34:24.084Z,183.87
2018-05-14T01:36:53.240Z,175.33
2018-05-14T01:39:22.385Z,174.87
2018-05-14T01:41:51.576Z,197.23
2018-05-14T01:44:20.756Z,191.90
2018-05-14T01:46:49.873Z,193.30
2018-05-14T01:49:19.000Z,170.10
2018-05-14T01:51:48.153Z,188.93
2018-05-14T01:54:17.313Z,172.00
2018-05-14T01:56:46.441Z,169.50
2018-05-14T01:59:15.571Z,185.03
2018-05-14T02:01:44.744Z,175.53
2018-05-14T02:04:13.865Z,173.33
2018-05-14T02:06:43.015Z,166.10
2018-05-14T02:09:12.151Z,171.33
2018-05-14T02:11:41.294Z,163.10
2018-05-14T02:14:10.428Z,206.00
2018-05-14T02:16:39.604Z,206.00
2018-05-14T02:19:08.743Z,175.27
2018-05-14T02:21:37.872Z,175.07
2018-05-14T02:24:07.021Z,205.60
2018-05-14T02:26:36.160Z,184.83
2018-05-14T02:29:05.484Z,198.23
2018-05-14T02:31:34.608Z,180.27
2018-05-14T02:34:03.762Z,191.43
2018-05-14T02:36:32.909Z,215.07
2018-05-14T02:39:02.053Z,206.00
2018-05-14T02:41:31.196Z,190.07
2018-05-14T02:44:00.377Z,196.80
2018-05-14T02:46:29.489Z,207.53
2018-05-14T02:48:58.647Z,205.53
2018-05-14T02:51:27.787Z,206.27
2018-05-14T02:53:56.933Z,234.73
2018-05-14T02:56:26.105Z,228.37
2018-05-14T02:58:55.248Z,225.03
2018-05-14T03:01:24.396Z,219.43
2018-05-14T03:03:53.515Z,232.77
2018-05-14T03:06:22.709Z,236.77
2018-05-14T03:08:51.846Z,220.70
2018-05-14T03:11:21.016Z,206.30
2018-05-14T03:13:50.166Z,228.50
2018-05-14T03:16:19.291Z,239.00
2018-05-14T03:18:48.656Z,216.13
2018-05-14T03:21:17.792Z,199.67
2018-05-14T03:23:46.933Z,211.13
2018-05-14T03:26:16.098Z,201.57
2018-05-14T03:28:45.273Z,214.97
2018-05-14T03:31:14.865Z,198.67
2018-05-14T03:33:43.981Z,198.80
2018-05-14T03:36:13.112Z,189.80
2018-05-14T03:38:42.260Z,211.43
2018-05-14T03:41:11.436Z,200.63
2018-05-14T03:43:40.543Z,212.90
2018-05-14T03:46:09.680Z,184.17
2018-05-14T03:48:38.820Z,199.80
2018-05-14T03:51:07.960Z,173.40
2018-05-14T03:53:37.119Z,227.50
2018-05-14T03:56:06.307Z,208.57
2018-05-14T03:58:41.436Z,202.57
2018-05-14T04:01:12.336Z,196.77
2018-05-14T04:03:47.526Z,191.33
2018-05-14T04:06:22.445Z,198.90
2018-05-14T04:08:51.592Z,194.40
2018-05-14T04:11:20.747Z,211.90
2018-05-14T04:13:49.899Z,198.43
2018-05-14T04:16:19.043Z,246.17
2018-05-14T04:18:48.211Z,223.97
2018-05-14T04:21:17.344Z,188.30
2018-05-14T04:23:46.462Z,208.20
2018-05-14T04:26:15.632Z,183.97
2018-05-14T04:28:44.746Z,177.73
2018-05-14T04:31:13.881Z,184.90
2018-05-14T04:33:43.045Z,168.47
2018-05-14T04:36:12.179Z,161.90
2018-05-14T04:38:41.348Z,192.97
2018-05-14T04:41:10.481Z,177.67
2018-05-14T04:43:39.601Z,178.30
2018-05-14T04:46:08.744Z,178.47
2018-05-14T04:48:37.907Z,218.77
2018-05-14T04:51:07.080Z,233.33
2018-05-14T04:53:36.193Z,204.13
2018-05-14T04:56:05.317Z,225.23
2018-05-14T04:58:34.483Z,193.80
2018-05-14T05:01:03.629Z,190.60
2018-05-14T05:03:32.769Z,188.80
2018-05-14T05:06:01.945Z,200.63
2018-05-14T05:08:31.081Z,177.77
2018-05-14T05:11:00.203Z,195.20
2018-05-14T05:13:29.392Z,236.43
2018-05-14T05:15:58.542Z,239.60
2018-05-14T05:18:27.732Z,250.13
2018-05-14T05:20:56.913Z,247.20
2018-05-14T05:23:26.057Z,223.70
2018-05-14T05:25:55.194Z,221.37
2018-05-14T05:28:24.388Z,309.80
2018-05-14T05:30:53.500Z,298.53
2018-05-14T05:33:22.632Z,293.50
2018-05-14T05:35:51.777Z,277.20
2018-05-14T05:38:20.897Z,228.57
2018-05-14T05:40:50.058Z,244.90
2018-05-14T05:43:19.736Z,226.67
2018-05-14T05:45:48.893Z,156.43
2018-05-14T05:48:18.012Z,156.13
2018-05-14T05:50:47.192Z,131.13
2018-05-14T05:53:16.345Z,162.23
2018-05-14T05:55:45.535Z,147.80
2018-05-14T05:58:14.660Z,186.73
2018-05-14T06:00:43.844Z,141.00
2018-05-14T06:03:12.985Z,179.17
2018-05-14T06:05:42.106Z,161.97
2018-05-14T06:08:11.258Z,170.30
2018-05-14T06:10:40.412Z,150.90
2018-05-14T06:13:09.523Z,191.70
2018-05-14T06:15:38.711Z,198.67
2018-05-14T06:18:07.861Z,207.83
2018-05-14T06:20:37.177Z,179.97
2018-05-14T06:23:06.328Z,182.30
2018-05-14T06:25:35.500Z,157.60
2018-05-14T06:28:04.672Z,174.93
2018-05-14T06:30:33.829Z,196.33
2018-05-14T06:33:02.942Z,252.77
2018-05-14T06:35:32.124Z,179.90
2018-05-14T06:38:01.280Z,222.97
2018-05-14T06:40:30.405Z,215.37
2018-05-14T06:42:59.572Z,158.53
2018-05-14T06:45:29.111Z,194.73
2018-05-14T06:47:58.253Z,182.90
2018-05-14T06:50:27.482Z,176.17
2018-05-14T06:52:56.659Z,145.17
2018-05-14T06:55:25.796Z,127.07
2018-05-14T06:57:54.984Z,108.90
2018-05-14T07:00:24.136Z,119.70
2018-05-14T07:02:53.259Z,120.93
2018-05-14T07:05:22.431Z,125.17
2018-05-14T07:07:51.560Z,114.83
2018-05-14T07:10:20.683Z,126.80
2018-05-14T07:12:49.832Z,113.40
2018-05-14T07:15:18.961Z,118.97
2018-05-14T07:17:48.112Z,105.10
2018-05-14T07:20:17.260Z,108.60
2018-05-14T07:22:46.578Z,110.70
2018-05-14T07:25:15.749Z,98.57
2018-05-14T07:27:44.897Z,102.60
2018-05-14T07:30:14.085Z,106.17
2018-05-14T07:32:43.265Z,105.63
2018-05-14T07:35:12.405Z,105.37
2018-05-14T07:37:41.546Z,103.43
2018-05-14T07:40:10.712Z,105.20
2018-05-14T07:42:39.853Z,109.07
2018-05-14T07:45:08.993Z,106.93
2018-05-14T07:47:38.934Z,120.10
2018-05-14T07:50:08.078Z,113.83
2018-05-14T07:52:37.251Z,111.37
2018-05-14T07:55:06.390Z,106.37
2018-05-14T07:57:35.556Z,108.57
2018-05-14T08:00:04.732Z,111.23
2018-05-14T08:02:33.876Z,118.30
2018-05-14T08:05:03.005Z,108.83
2018-05-14T08:07:32.139Z,107.20
2018-05-14T08:10:01.797Z,103.07
2018-05-14T08:12:30.948Z,102.77
2018-05-14T08:15:00.080Z,111.33
2018-05-14T08:17:29.193Z,104.73
2018-05-14T08:19:58.364Z,105.90
2018-05-14T08:22:27.516Z,98.80
2018-05-14T08:24:56.657Z,99.50
2018-05-14T08:27:25.833Z,100.50
2018-05-14T08:32:42.888Z,99.00
2018-05-14T08:35:12.036Z,99.80
2018-05-14T08:37:41.165Z,98.97
2018-05-14T08:40:10.309Z,111.40
2018-05-14T08:42:39.421Z,97.97
2018-05-14T08:45:08.617Z,109.33
2018-05-14T08:47:37.797Z,99.57
2018-05-14T08:50:06.958Z,92.70
2018-05-14T08:52:36.082Z,92.20
2018-05-14T08:55:05.205Z,93.57
2018-05-14T08:57:34.512Z,95.50
2018-05-14T09:00:03.674Z,95.47
2018-05-14T09:02:32.825Z,94.20
2018-05-14T09:05:01.969Z,93.20
2018-05-14T09:07:31.146Z,89.77
2018-05-14T09:10:00.263Z,94.40
2018-05-14T09:12:29.380Z,92.67
2018-05-14T09:14:58.564Z,92.13
2018-05-14T09:17:27.713Z,92.63
2018-05-14T09:19:56.844Z,91.53
2018-05-14T09:22:26.034Z,91.60
2018-05-14T09:24:55.156Z,91.67
2018-05-14T09:27:24.296Z,95.57
2018-05-14T09:29:53.502Z,93.80
2018-05-14T09:32:22.628Z,97.77
2018-05-14T09:34:51.768Z,92.10
2018-05-14T09:37:21.036Z,96.10
2018-05-14T09:39:50.254Z,95.83
2018-05-14T09:42:19.406Z,94.80
2018-05-14T09:44:48.532Z,90.87
2018-05-14T09:47:17.648Z,94.13
2018-05-14T09:49:46.836Z,94.80
2018-05-14T09:52:15.995Z,96.20
2018-05-14T09:54:45.136Z,94.40
2018-05-14T09:57:14.346Z,94.17
2018-05-14T09:59:43.412Z,93.57
2018-05-14T10:02:12.584Z,96.70
2018-05-14T10:04:41.719Z,96.13
2018-05-14T10:07:10.926Z,90.40
2018-05-14T10:09:40.048Z,89.67
2018-05-14T10:12:09.183Z,89.80
2018-05-14T10:14:38.376Z,93.13
2018-05-14T10:17:07.504Z,90.97
2018-05-14T10:19:36.639Z,90.40
2018-05-14T10:22:05.811Z,93.57
2018-05-14T10:24:34.959Z,98.13
2018-05-14T10:27:04.103Z,98.77
2018-05-14T10:29:33.267Z,98.10
2018-05-14T10:32:02.441Z,101.20
2018-05-14T10:34:31.592Z,98.30
2018-05-14T10:37:00.787Z,100.37
2018-05-14T10:39:29.912Z,96.10
2018-05-14T10:41:59.542Z,101.40
2018-05-14T10:44:28.700Z,105.87
2018-05-14T10:46:57.823Z,101.80
2018-05-14T10:49:26.948Z,103.20
2018-05-14T10:51:56.105Z,99.97
2018-05-14T10:54:25.229Z,105.77
2018-05-14T10:56:54.362Z,103.77
2018-05-14T10:59:23.540Z,106.70
2018-05-14T11:01:52.667Z,105.30
2018-05-14T11:04:21.813Z,106.60
2018-05-14T11:06:50.990Z,103.97
2018-05-14T11:09:20.155Z,104.07
2018-05-14T11:11:49.291Z,98.90
2018-05-14T11:14:18.445Z,101.97
2018-05-14T11:16:47.636Z,104.20
2018-05-14T11:19:16.804Z,106.50
2018-05-14T11:21:45.936Z,104.17
2018-05-14T11:24:15.082Z,108.40
2018-05-14T11:26:44.261Z,117.93
2018-05-14T11:29:13.393Z,110.23
2018-05-14T11:31:42.541Z,111.90
2018-05-14T11:34:11.694Z,112.00
2018-05-14T11:36:40.824Z,107.10
2018-05-14T11:39:09.941Z,110.00
2018-05-14T11:41:39.116Z,109.57
2018-05-14T11:44:08.289Z,113.00
2018-05-14T11:46:37.436Z,114.10
2018-05-14T11:49:06.618Z,116.07
2018-05-14T11:51:35.767Z,113.43
2018-05-14T11:54:04.888Z,116.10
2018-05-14T11:56:34.053Z,117.97
2018-05-14T11:59:03.262Z,104.80
2018-05-14T12:01:32.392Z,109.47
2018-05-14T12:04:01.541Z,108.43
2018-05-14T12:06:30.659Z,115.23
2018-05-14T12:08:59.816Z,109.20
2018-05-14T12:11:28.997Z,116.57
2018-05-14T12:13:58.101Z,117.47
2018-05-14T12:16:27.306Z,114.17
2018-05-14T12:18:56.460Z,117.17
2018-05-14T12:21:25.623Z,123.33
2018-05-14T12:23:54.804Z,117.17
2018-05-14T12:26:23.933Z,117.43
2018-05-14T12:28:53.048Z,112.70
2018-05-14T12:31:22.195Z,118.37
2018-05-14T12:33:51.349Z,116.87
2018-05-14T12:36:20.469Z,117.70
2018-05-14T12:38:49.648Z,124.37
2018-05-14T12:41:18.823Z,119.83
2018-05-14T12:43:47.965Z,121.00
2018-05-14T12:46:17.151Z,127.87
2018-05-14T12:48:46.261Z,122.87
2018-05-14T12:51:15.379Z,121.10
2018-05-14T12:53:44.571Z,122.90
2018-05-14T12:56:13.707Z,124.23
2018-05-14T12:58:42.829Z,126.13
2018-05-14T13:01:12.001Z,130.23
2018-05-14T13:03:41.135Z,129.70
2018-05-14T13:06:10.252Z,128.30
2018-05-14T13:08:39.405Z,132.90
2018-05-14T13:11:08.759Z,128.70
2018-05-14T13:13:38.008Z,124.10
2018-05-14T13:16:07.143Z,128.67
2018-05-14T13:18:36.315Z,131.47
2018-05-14T13:21:05.440Z,128.57
2018-05-14T13:23:34.580Z,132.53
2018-05-14T13:26:03.738Z,129.67
2018-05-14T13:28:32.889Z,135.50
2018-05-14T13:31:02.053Z,129.70
2018-05-14T13:33:31.236Z,129.30
2018-05-14T13:36:00.380Z,135.43
2018-05-14T13:38:29.533Z,136.03
2018-05-14T13:40:58.704Z,137.57
2018-05-14T13:43:27.821Z,135.47
2018-05-14T13:45:56.946Z,147.47
2018-05-14T13:48:26.138Z,142.57
2018-05-14T13:50:55.291Z,145.17
2018-05-14T13:53:24.448Z,140.10
2018-05-14T13:55:53.600Z,144.27
2018-05-14T13:58:22.731Z,142.03
2018-05-14T14:00:51.878Z,134.60
2018-05-14T14:03:21.049Z,137.13
2018-05-14T14:05:50.224Z,138.00
2018-05-14T14:08:19.393Z,139.40
2018-05-14T14:10:48.508Z,136.33
2018-05-14T14:13:17.646Z,129.40
2018-05-14T14:15:46.792Z,130.77
2018-05-14T14:18:15.967Z,135.07
2018-05-14T14:20:45.094Z,127.40
2018-05-14T14:23:14.265Z,131.23
2018-05-14T14:25:43.492Z,123.10
2018-05-14T14:28:12.613Z,126.60
2018-05-14T14:30:41.768Z,123.00
2018-05-14T14:33:10.923Z,129.77
2018-05-14T14:35:40.051Z,129.37
2018-05-14T14:38:09.186Z,128.07
2018-05-14T14:40:38.322Z,123.30
2018-05-14T14:43:07.487Z,130.30
2018-05-14T14:45:36.634Z,119.37
2018-05-14T14:48:05.769Z,124.10
2018-05-14T14:50:34.924Z,127.90
2018-05-14T14:53:04.061Z,126.90
2018-05-14T14:55:33.200Z,123.80
2018-05-14T14:58:02.383Z,130.40
2018-05-14T15:00:31.512Z,127.27
2018-05-14T15:03:00.629Z,129.93
2018-05-14T15:05:29.780Z,127.27
2018-05-14T15:07:58.913Z,126.40
2018-05-14T15:10:28.057Z,129.03
2018-05-14T15:12:57.193Z,132.53
2018-05-14T15:15:26.312Z,124.23
2018-05-14T15:17:55.497Z,135.47
2018-05-14T15:20:24.629Z,126.73
2018-05-14T15:22:53.766Z,120.47
2018-05-14T15:25:22.925Z,129.70
2018-05-14T15:27:52.049Z,125.57
2018-05-14T15:30:21.188Z,128.70
2018-05-14T15:32:50.372Z,130.80
2018-05-14T15:35:19.502Z,130.60
2018-05-14T15:37:48.654Z,124.73
2018-05-14T15:40:18.251Z,126.03
2018-05-14T15:42:47.391Z,130.00
2018-05-14T15:45:16.509Z,142.50
2018-05-14T15:47:45.688Z,131.83
2018-05-14T15:50:14.860Z,132.20
2018-05-14T15:52:43.995Z,131.63
2018-05-14T15:55:13.150Z,121.93
2018-05-14T15:57:42.302Z,129.20
2018-05-14T16:00:11.444Z,129.17
2018-05-14T16:02:40.583Z,128.03
2018-05-14T16:05:09.749Z,139.30
2018-05-14T16:07:38.884Z,139.97
2018-05-14T16:10:08.046Z,151.57
2018-05-14T16:12:37.221Z,148.03
2018-05-14T16:15:06.349Z,135.90
2018-05-14T16:17:35.520Z,140.83
2018-05-14T16:20:04.687Z,128.33
2018-05-14T16:22:33.812Z,123.60
2018-05-14T16:25:03.003Z,124.53
2018-05-14T16:27:32.156Z,127.90
2018-05-14T16:30:01.300Z,127.70
2018-05-14T16:32:30.505Z,126.73
2018-05-14T16:34:59.732Z,130.10
2018-05-14T16:37:28.942Z,128.70
2018-05-14T16:39:58.174Z,131.60
2018-05-14T16:42:27.357Z,128.63
2018-05-14T16:44:56.510Z,129.27
2018-05-14T16:47:25.771Z,129.70
2018-05-14T16:49:54.895Z,154.30
2018-05-14T16:52:24.072Z,148.23
2018-05-14T16:54:53.234Z,146.57
2018-05-14T16:57:22.419Z,128.50
2018-05-14T16:59:51.592Z,127.00
2018-05-14T17:02:20.712Z,120.27
2018-05-14T17:04:49.990Z,124.43
2018-05-14T17:07:19.164Z,124.67
2018-05-14T17:09:48.307Z,126.67
2018-05-14T17:12:17.481Z,123.60
2018-05-14T17:14:46.604Z,126.13
2018-05-14T17:17:15.837Z,121.17
2018-05-14T17:19:44.941Z,119.83
2018-05-14T17:22:14.072Z,119.30
2018-05-14T17:24:43.239Z,122.27
2018-05-14T17:27:12.398Z,118.13
2018-05-14T17:29:41.518Z,115.20
2018-05-14T17:32:10.693Z,115.27
2018-05-14T17:34:39.823Z,122.37
2018-05-14T17:37:08.987Z,116.07
2018-05-14T17:39:38.127Z,115.03
2018-05-14T17:42:07.292Z,109.67
2018-05-14T17:44:36.413Z,115.07
2018-05-14T17:47:05.580Z,114.37
2018-05-14T17:49:34.732Z,118.57
2018-05-14T17:52:03.870Z,111.77
2018-05-14T17:54:33.025Z,106.83
2018-05-14T17:57:02.201Z,110.20
2018-05-14T17:59:31.397Z,112.10
2018-05-14T18:02:00.504Z,110.87
2018-05-14T18:04:29.656Z,117.03
2018-05-14T18:06:59.318Z,115.33
2018-05-14T18:09:28.469Z,113.30
2018-05-14T18:11:57.600Z,116.50
2018-05-14T18:14:26.734Z,116.77
2018-05-14T18:16:55.905Z,118.00
2018-05-14T18:19:25.088Z,113.07
2018-05-14T18:22:00.008Z,116.00
2018-05-14T18:24:29.184Z,115.03
2018-05-14T18:26:58.333Z,118.47
2018-05-14T18:29:31.161Z,115.60
2018-05-14T18:32:04.161Z,112.43
2018-05-14T18:34:38.910Z,116.47
2018-05-14T18:37:08.071Z,117.17
2018-05-14T18:39:37.213Z,113.00
2018-05-14T18:42:06.361Z,115.97
2018-05-14T18:44:35.497Z,121.07
2018-05-14T18:47:04.676Z,115.43
2018-05-14T18:49:33.841Z,119.27
2018-05-14T18:52:03.036Z,111.70
2018-05-14T18:54:32.151Z,111.30
2018-05-14T18:57:01.312Z,113.60
2018-05-14T18:59:30.495Z,118.00
2018-05-14T19:01:59.673Z,122.70
2018-05-14T19:04:28.816Z,116.60
2018-05-14T19:06:57.976Z,126.90
2018-05-14T19:09:27.126Z,114.37
2018-05-14T19:11:56.289Z,127.37
2018-05-14T19:14:25.416Z,121.37
2018-05-14T19:17:00.390Z,120.83
2018-05-14T19:19:29.528Z,118.63
2018-05-14T19:21:58.690Z,116.77
2018-05-14T19:24:27.865Z,123.23
2018-05-14T19:26:56.982Z,124.13
2018-05-14T19:29:31.860Z,121.93
2018-05-14T19:32:00.989Z,121.97
2018-05-14T19:34:35.771Z,124.67
2018-05-14T19:37:04.941Z,124.90
2018-05-14T19:39:39.795Z,132.00
2018-05-14T19:42:08.934Z,130.17
2018-05-14T19:44:38.078Z,131.50
2018-05-14T19:47:07.256Z,134.17
2018-05-14T19:49:36.449Z,128.77
2018-05-14T19:52:05.576Z,138.57
2018-05-14T19:54:34.737Z,134.57
2018-05-14T19:57:03.904Z,138.60
2018-05-14T19:59:33.047Z,145.33
2018-05-14T20:02:02.203Z,133.97
2018-05-14T20:04:31.350Z,137.50
2018-05-14T20:07:00.557Z,132.80
2018-05-14T20:09:29.685Z,138.00
2018-05-14T20:11:58.884Z,135.37
2018-05-14T20:17:15.889Z,138.63
2018-05-14T20:19:45.046Z,134.27
2018-05-14T20:22:14.202Z,135.97
2018-05-14T20:24:43.368Z,137.20
2018-05-14T20:27:12.511Z,140.83
2018-05-14T20:29:41.655Z,137.33
2018-05-14T20:32:10.785Z,142.57
2018-05-14T20:34:39.929Z,132.93
2018-05-14T20:37:10.388Z,136.87
2018-05-14T20:39:39.443Z,135.60
2018-05-14T20:42:08.548Z,131.57
2018-05-14T20:44:37.705Z,208.70
2018-05-14T20:47:06.852Z,154.33
2018-05-14T20:49:35.972Z,176.47
2018-05-14T20:52:05.189Z,171.43
2018-05-14T20:54:34.292Z,176.83
2018-05-14T20:57:04.333Z,175.87
2018-05-14T20:59:33.514Z,177.40
2018-05-14T21:02:02.636Z,163.27
2018-05-14T21:04:31.763Z,162.23
2018-05-14T21:07:01.224Z,173.10
2018-05-14T21:09:30.347Z,162.07
2018-05-14T21:11:59.481Z,157.80
2018-05-14T21:14:28.703Z,160.63
2018-05-14T21:16:57.825Z,166.43
2018-05-14T21:19:26.953Z,156.10
2018-05-14T21:21:56.112Z,159.70
2018-05-14T21:24:25.260Z,152.90
2018-05-14T21:26:54.382Z,170.30
2018-05-14T21:29:23.530Z,150.77
2018-05-14T21:31:52.688Z,170.77
2018-05-14T21:34:21.833Z,194.47
2018-05-14T21:36:50.986Z,171.07
2018-05-14T21:39:20.130Z,160.60
2018-05-14T21:41:49.263Z,155.80
2018-05-14T21:44:18.433Z,163.17
2018-05-14T21:46:47.612Z,164.23
2018-05-14T21:49:16.776Z,136.27
2018-05-14T21:51:45.938Z,123.73
2018-05-14T21:54:15.076Z,115.20
2018-05-14T21:56:44.231Z,126.07
2018-05-14T21:59:13.377Z,119.53
2018-05-14T22:01:42.500Z,120.63
2018-05-14T22:04:11.644Z,116.73
2018-05-14T22:06:40.848Z,122.40
2018-05-14T22:09:10.040Z,119.33
2018-05-14T22:11:39.180Z,117.17
2018-05-14T22:14:08.318Z,114.67
2018-05-14T22:16:37.487Z,115.80
2018-05-14T22:19:07.284Z,121.87
2018-05-14T22:21:36.490Z,130.20
2018-05-14T22:24:05.604Z,135.10
2018-05-14T22:26:34.812Z,129.53
2018-05-14T22:29:03.912Z,116.03
2018-05-14T22:31:33.064Z,127.87
2018-05-14T22:34:02.176Z,123.97
2018-05-14T22:36:31.327Z,144.17
2018-05-14T22:39:00.473Z,133.50
2018-05-14T22:41:29.593Z,137.83
2018-05-14T22:43:58.790Z,118.67
2018-05-14T22:46:27.924Z,123.47
2018-05-14T22:48:57.093Z,120.57
2018-05-14T22:51:26.232Z,128.50
2018-05-14T22:53:55.380Z,133.00
2018-05-14T22:56:24.541Z,152.07
2018-05-14T22:58:53.697Z,164.13
2018-05-14T23:01:22.857Z,173.30
2018-05-14T23:03:52.012Z,154.33
2018-05-14T23:06:21.460Z,136.00
2018-05-14T23:08:50.604Z,144.53
2018-05-14T23:11:19.727Z,155.33
2018-05-14T23:13:48.920Z,194.00
2018-05-14T23:16:18.068Z,158.87
2018-05-14T23:18:47.231Z,129.87
2018-05-14T23:21:16.409Z,126.13
2018-05-14T23:23:45.556Z,122.07
2018-05-14T23:26:14.712Z,118.53
2018-05-14T23:28:43.888Z,115.20
2018-05-14T23:31:13.032Z,120.30
2018-05-14T23:33:42.181Z,110.57
2018-05-14T23:36:11.350Z,108.57
2018-05-14T23:38:40.511Z,109.93
2018-05-14T23:41:09.723Z,107.13
2018-05-14T23:43:38.856Z,111.80
2018-05-14T23:46:08.017Z,103.77
2018-05-14T23:48:37.152Z,107.47
2018-05-14T23:51:06.349Z,110.17
2018-05-14T23:53:35.490Z,114.70
2018-05-14T23:56:04.640Z,147.37
2018-05-14T23:58:33.761Z,119.37
